Airfield :







YOU CAN JOIN US ON...

 
LOGIN :

Register | Disclaimer

   EN    FR    IT 

 









Legend :    VFR   Marginal VFR   IFR   Intensive IFR   Very Intensive IFR
Visi :
Ceiling :
>= 8 km
>= 3000ft
5 to 8 km
1000 to 3000 ft
1500m to 5 km
500 to 1000 ft
800 to 1500m
200 to 500 ft
< 800m
< 200 ft
Symbols :   Thunderstorms  Fog  Heavy snow  Heavy precipitations  Wind > 20 kt






- Airport Elevation : 71 ft
- IATA code : YBC


CYBC - Baie Comeau

CURRENT METAR :
  • 121600Z AUTO 21009KT 9SM BKN025 OVC070 23/20 A2940 RMK RVR MISG SLP956 DENSITY ALT 1600FT

EXPIRED METARs :
  • 121520Z AUTO 24008KT 210V280 9SM BKN025 24/20 A2941 RMK RVR MISG SLP961 DENSITY ALT 1600FT
  • 121508Z AUTO 25008KT 9SM OVC023 23/20 A2941 RMK RVR MISG SLP962 DENSITY ALT 1500FT
  • 121500Z AUTO 24007KT 9SM OVC025 22/19 A2942 RMK RVR MISG SLP963 DENSITY ALT 1500FT
  • 121400Z AUTO 22006KT 9SM OVC025 23/20 A2942 RMK RVR MISG SLP964 DENSITY ALT 1500FT

TAF TAF CYBC
Valid from the 12 at 14:00 until the 13 at 02:00 UTC


121347Z 1214/1302 20010G20KT P6SM OVC025
TEMPO 1214/1220 5SM -SHRA BR OVC015
FM122000 20012KT P6SM BKN040
TEMPO 1220/1302 4SM -SHRA BR OVC020
PROB30 1220/1302 VRB20G30KT 1SM +TSRA BR BKN015 OVC030CB RMK FCST BASED ON AUTO OBS. NXT FCST BY 122000Z
CZUL FIR / North America



MET'MAP, your aeronautical weather chart ! - Copyright ORBIFLY December 2007 - Disclaimer

ORBIFLY MET'MAP TEAM :

Programming & Development : Alexandra Zaïnal
Concept & original design : Baudouin d'Aumeries
Assistance for programming : Marc-Olivier Méhu
Technical & hardware support : Manuel Goepfert

Contact : metmap@orbifly.com




SOURCES & CREDITS :

   NOAA